Aviation Digital Data Service (ADDS)

Output produced by METARs form (2111 UTC 06 December 2019)
found at http://www.aviationweather.gov/metar/data/
 
Forecast for: ZGSZ (SHENZHEN , CN)
Text: TAF ZGSZ 061501Z 0618/0718 03005G10MPS CAVOK TX22/0706Z TN13/0622Z
Forecast period: 1800 UTC 06 December 2019 to 1800 UTC 07 December 2019
Forecast type: FROM: standard forecast or significant change
Winds: from the NNE (30 degrees) at 12 MPH (10 knots; 5.1 m/s)
gusting to 22 MPH (19 knots; 9.8 m/s)
Visibility: 6 or more miles 10+ km)
Ceiling: unknown
Clouds: missing
Weather: no significant weather forecast for this period